createdAt,value
2019-05-22T00:00:03.864Z,85.27
2019-05-22T00:01:03.850Z,85.37
2019-05-22T00:02:03.839Z,85.47
2019-05-22T00:03:03.935Z,85.47
2019-05-22T00:04:03.818Z,85.37
2019-05-22T00:05:03.817Z,85.37
2019-05-22T00:06:03.799Z,85.68
2019-05-22T00:07:03.784Z,85.68
2019-05-22T00:08:03.779Z,85.68
2019-05-22T00:09:03.763Z,85.72
2019-05-22T00:10:03.754Z,85.92
2019-05-22T00:11:03.757Z,85.61
2019-05-22T00:12:03.728Z,85.72
2019-05-22T00:13:03.722Z,85.31
2019-05-22T00:14:03.710Z,85.21
2019-05-22T00:15:03.866Z,85.41
2019-05-22T00:16:03.685Z,85.31
2019-05-22T00:17:03.685Z,85.41
2019-05-22T00:18:03.746Z,85.41
2019-05-22T00:19:03.665Z,85.41
2019-05-22T00:20:03.640Z,85.21
2019-05-22T00:21:03.662Z,85.21
2019-05-22T00:22:03.620Z,85.41
2019-05-22T00:23:03.621Z,85.51
2019-05-22T00:24:03.598Z,85.47
2019-05-22T00:25:03.588Z,85.27
2019-05-22T00:26:03.576Z,85.72
2019-05-22T00:27:03.567Z,85.41
2019-05-22T00:28:03.560Z,85.27
2019-05-22T00:29:03.554Z,85.68
2019-05-22T00:30:03.532Z,85.51
2019-05-22T00:31:03.522Z,85.82
2019-05-22T00:32:03.511Z,86.02
2019-05-22T00:33:03.503Z,86.33
2019-05-22T00:34:03.488Z,86.33
2019-05-22T00:35:03.504Z,86.53
2019-05-22T00:36:03.468Z,86.33
2019-05-22T00:37:03.459Z,86.53
2019-05-22T00:38:03.513Z,86.43
2019-05-22T00:39:03.435Z,86.53
2019-05-22T00:40:03.425Z,86.43
2019-05-22T00:41:03.423Z,86.43
2019-05-22T00:42:03.403Z,86.33
2019-05-22T00:43:10.822Z,86.53
2019-05-22T00:44:04.379Z,86.57
2019-05-22T00:45:03.372Z,86.83
2019-05-22T00:46:03.362Z,86.74
2019-05-22T00:47:03.362Z,86.83
2019-05-22T00:48:03.339Z,86.88
2019-05-22T00:49:03.326Z,86.77
2019-05-22T00:50:03.319Z,87.18
2019-05-22T00:51:03.315Z,86.88
2019-05-22T00:52:03.294Z,86.77
2019-05-22T00:53:03.293Z,86.98
2019-05-22T00:54:03.274Z,86.98
2019-05-22T00:55:03.265Z,87.18
2019-05-22T00:56:03.263Z,86.98
2019-05-22T00:57:03.241Z,86.88
2019-05-22T00:58:03.230Z,86.83
2019-05-22T00:59:03.232Z,86.77
2019-05-22T01:00:03.209Z,86.77
2019-05-22T01:01:03.210Z,86.57
2019-05-22T01:02:03.296Z,86.98
2019-05-22T01:03:03.176Z,86.98
2019-05-22T01:04:03.168Z,87.08
2019-05-22T01:05:03.174Z,86.88
2019-05-22T01:06:03.159Z,86.88
2019-05-22T01:07:03.140Z,86.77
2019-05-22T01:08:03.129Z,86.88
2019-05-22T01:09:03.115Z,86.77
2019-05-22T01:10:04.149Z,86.68
2019-05-22T01:11:03.102Z,86.88
2019-05-22T01:12:03.700Z,87.08
2019-05-22T01:13:03.067Z,86.88
2019-05-22T01:14:03.057Z,87.38
2019-05-22T01:15:03.594Z,87.29
2019-05-22T01:16:03.036Z,87.29
2019-05-22T01:17:03.038Z,86.57
2019-05-22T01:18:03.015Z,86.98
2019-05-22T01:19:03.005Z,86.98
2019-05-22T01:20:02.997Z,86.98
2019-05-22T01:21:02.981Z,86.68
2019-05-22T01:22:02.972Z,86.88
2019-05-22T01:23:02.974Z,86.77
2019-05-22T01:24:02.951Z,86.98
2019-05-22T01:25:02.942Z,86.88
2019-05-22T01:26:02.936Z,87.08
2019-05-22T01:27:02.918Z,87.08
2019-05-22T01:28:02.929Z,86.98
2019-05-22T01:29:03.053Z,87.08
2019-05-22T01:30:02.900Z,86.77
2019-05-22T01:31:02.882Z,87.18
2019-05-22T01:32:02.865Z,86.77
2019-05-22T01:33:02.854Z,87.29
2019-05-22T01:34:02.844Z,86.77
2019-05-22T01:35:02.842Z,86.57
2019-05-22T01:36:02.823Z,86.77
2019-05-22T01:37:02.812Z,87.29
2019-05-22T01:38:02.802Z,86.98
2019-05-22T01:39:02.999Z,87.18
2019-05-22T01:40:02.781Z,86.68
2019-05-22T01:41:02.780Z,86.98
2019-05-22T01:42:02.757Z,87.08
2019-05-22T01:43:02.749Z,87.08
2019-05-22T01:44:02.747Z,87.08
2019-05-22T01:45:06.472Z,86.98
2019-05-22T01:46:02.715Z,86.88
2019-05-22T01:47:02.716Z,86.27
2019-05-22T01:48:02.697Z,86.77
2019-05-22T01:49:02.682Z,87.29
2019-05-22T01:50:02.680Z,86.88
2019-05-22T01:51:02.794Z,87.29
2019-05-22T01:52:02.649Z,87.38
2019-05-22T01:53:02.653Z,87.38
2019-05-22T01:54:02.633Z,87.43
2019-05-22T01:55:02.626Z,87.79
2019-05-22T01:56:02.947Z,87.38
2019-05-22T01:57:02.596Z,87.38
2019-05-22T01:58:02.587Z,87.63
2019-05-22T01:59:02.585Z,87.73
2019-05-22T02:00:02.567Z,87.69
2019-05-22T02:01:02.616Z,87.63
2019-05-22T02:02:02.603Z,87.69
2019-05-22T02:03:02.533Z,87.90
2019-05-22T02:04:02.526Z,87.90
2019-05-22T02:05:02.519Z,87.94
2019-05-22T02:06:02.500Z,88.14
2019-05-22T02:07:02.489Z,88.04
2019-05-22T02:08:02.494Z,88.10
2019-05-22T02:09:02.473Z,88.00
2019-05-22T02:10:02.975Z,88.00
2019-05-22T02:11:02.470Z,88.04
2019-05-22T02:12:02.437Z,87.94
2019-05-22T02:13:02.424Z,88.24
2019-05-22T02:14:02.414Z,87.94
2019-05-22T02:15:02.404Z,88.04
2019-05-22T02:16:02.391Z,88.20
2019-05-22T02:17:02.394Z,88.04
2019-05-22T02:18:02.372Z,88.00
2019-05-22T02:19:02.395Z,88.04
2019-05-22T02:20:02.495Z,88.00
2019-05-22T02:21:02.339Z,88.00
2019-05-22T02:22:02.328Z,87.94
2019-05-22T02:23:02.327Z,88.04
2019-05-22T02:24:02.310Z,88.04
2019-05-22T02:25:02.298Z,87.84
2019-05-22T02:26:02.287Z,87.63
2019-05-22T02:27:02.751Z,87.43
2019-05-22T02:28:02.265Z,87.43
2019-05-22T02:29:02.264Z,87.43
2019-05-22T02:30:02.328Z,87.63
2019-05-22T02:31:02.234Z,87.53
2019-05-22T02:32:02.232Z,88.04
2019-05-22T02:33:02.211Z,87.63
2019-05-22T02:34:02.208Z,88.14
2019-05-22T02:35:02.208Z,88.04
2019-05-22T02:36:02.184Z,88.18
2019-05-22T02:37:02.168Z,88.45
2019-05-22T02:38:02.163Z,87.88
2019-05-22T02:39:02.151Z,88.39
2019-05-22T02:40:02.143Z,89.00
2019-05-22T02:41:02.138Z,89.30
2019-05-22T02:42:02.115Z,88.90
2019-05-22T02:43:02.112Z,89.71
2019-05-22T02:44:02.108Z,90.53
2019-05-22T02:45:02.147Z,90.22
2019-05-22T02:46:02.070Z,90.42
2019-05-22T02:47:17.757Z,90.63
2019-05-22T02:48:03.050Z,90.53
2019-05-22T02:49:02.039Z,90.94
2019-05-22T02:50:02.041Z,90.63
2019-05-22T02:51:02.023Z,90.88
2019-05-22T02:52:02.018Z,91.49
2019-05-22T02:53:02.016Z,90.63
2019-05-22T02:54:01.987Z,91.08
2019-05-22T02:55:01.978Z,90.88
2019-05-22T02:56:01.969Z,90.98
2019-05-22T02:57:01.953Z,90.67
2019-05-22T02:58:01.942Z,90.88
2019-05-22T02:59:01.952Z,90.88
2019-05-22T03:00:01.921Z,90.67
2019-05-22T03:01:01.940Z,91.28
2019-05-22T03:02:01.902Z,90.98
2019-05-22T03:03:01.889Z,91.08
2019-05-22T03:04:01.877Z,91.08
2019-05-22T03:05:02.093Z,90.26
2019-05-22T03:06:01.854Z,90.26
2019-05-22T03:07:01.842Z,90.57
2019-05-22T03:08:01.835Z,90.36
2019-05-22T03:09:01.860Z,89.86
2019-05-22T03:10:01.894Z,89.96
2019-05-22T03:11:01.811Z,90.06
2019-05-22T03:12:01.790Z,89.65
2019-05-22T03:13:01.789Z,89.25
2019-05-22T03:14:01.793Z,89.34
2019-05-22T03:15:01.756Z,89.45
2019-05-22T03:16:01.745Z,89.55
2019-05-22T03:17:01.745Z,88.84
2019-05-22T03:18:01.728Z,89.04
2019-05-22T03:19:09.024Z,88.84
2019-05-22T03:20:02.710Z,88.84
2019-05-22T03:21:01.690Z,88.84
2019-05-22T03:22:01.678Z,88.73
2019-05-22T03:23:01.681Z,88.12
2019-05-22T03:24:01.659Z,88.32
2019-05-22T03:25:01.647Z,88.22
2019-05-22T03:26:01.637Z,87.92
2019-05-22T03:27:01.627Z,88.28
2019-05-22T03:28:01.629Z,88.28
2019-05-22T03:29:01.616Z,88.43
2019-05-22T03:30:01.727Z,88.18
2019-05-22T03:31:01.585Z,88.12
2019-05-22T03:32:01.591Z,88.08
2019-05-22T03:33:01.562Z,88.12
2019-05-22T03:34:01.553Z,88.18
2019-05-22T03:35:01.573Z,88.02
2019-05-22T03:36:01.550Z,88.12
2019-05-22T03:37:01.532Z,88.32
2019-05-22T03:38:01.509Z,88.32
2019-05-22T03:39:01.586Z,88.43
2019-05-22T03:40:01.487Z,88.32
2019-05-22T03:41:01.491Z,88.12
2019-05-22T03:42:01.463Z,88.32
2019-05-22T03:43:01.451Z,88.73
2019-05-22T03:44:01.441Z,88.53
2019-05-22T03:45:01.452Z,88.84
2019-05-22T03:46:01.433Z,88.73
2019-05-22T03:47:01.426Z,89.14
2019-05-22T03:48:01.400Z,89.55
2019-05-22T03:49:01.387Z,89.45
2019-05-22T03:50:01.386Z,89.34
2019-05-22T03:51:01.366Z,89.14
2019-05-22T03:52:01.362Z,89.65
2019-05-22T03:53:01.357Z,89.65
2019-05-22T03:54:01.332Z,90.31
2019-05-22T03:55:01.324Z,90.31
2019-05-22T03:56:01.309Z,90.77
2019-05-22T03:57:01.301Z,90.81
2019-05-22T03:58:01.290Z,90.81
2019-05-22T03:59:01.289Z,90.71
2019-05-22T04:00:01.267Z,91.12
2019-05-22T04:01:01.293Z,90.41
2019-05-22T04:02:01.249Z,90.61
2019-05-22T04:03:01.239Z,90.61
2019-05-22T04:04:01.225Z,90.81
2019-05-22T04:05:01.223Z,90.92
2019-05-22T04:06:01.204Z,90.61
2019-05-22T04:07:01.192Z,90.41
2019-05-22T04:08:01.190Z,90.61
2019-05-22T04:09:01.169Z,90.20
2019-05-22T04:10:01.174Z,89.90
2019-05-22T04:11:01.186Z,89.69
2019-05-22T04:12:01.139Z,89.69
2019-05-22T04:13:01.126Z,89.79
2019-05-22T04:14:01.122Z,89.79
2019-05-22T04:15:01.103Z,89.18
2019-05-22T04:16:01.094Z,88.98
2019-05-22T04:17:01.090Z,89.18
2019-05-22T04:18:01.071Z,89.59
2019-05-22T04:19:01.063Z,89.59
2019-05-22T04:20:01.046Z,89.43
2019-05-22T04:21:01.038Z,88.78
2019-05-22T04:22:01.028Z,89.12
2019-05-22T04:23:01.027Z,88.71
2019-05-22T04:24:01.018Z,88.67
2019-05-22T04:25:00.993Z,88.67
2019-05-22T04:26:00.989Z,89.02
2019-05-22T04:27:00.971Z,88.41
2019-05-22T04:28:00.962Z,88.67
2019-05-22T04:29:00.970Z,88.06
2019-05-22T04:30:00.940Z,87.76
2019-05-22T04:31:00.932Z,87.96
2019-05-22T04:32:00.915Z,87.76
2019-05-22T04:33:00.906Z,87.76
2019-05-22T04:34:00.896Z,86.83
2019-05-22T04:35:00.898Z,86.73
2019-05-22T04:36:00.874Z,86.43
2019-05-22T04:37:00.861Z,86.02
2019-05-22T04:38:00.868Z,86.12
2019-05-22T04:39:00.849Z,85.92
2019-05-22T04:40:00.830Z,86.02
2019-05-22T04:41:00.841Z,86.02
2019-05-22T04:42:00.809Z,85.92
2019-05-22T04:43:00.799Z,85.71
2019-05-22T04:44:00.784Z,84.69
2019-05-22T04:45:00.774Z,84.39
2019-05-22T04:46:00.773Z,84.39
2019-05-22T04:47:00.764Z,84.04
2019-05-22T04:48:00.750Z,84.18
2019-05-22T04:49:00.735Z,84.59
2019-05-22T04:50:07.606Z,84.08
2019-05-22T04:51:01.709Z,84.80
2019-05-22T04:52:00.708Z,84.45
2019-05-22T04:53:00.726Z,84.39
2019-05-22T04:54:00.704Z,84.25
2019-05-22T04:55:00.666Z,84.08
2019-05-22T04:56:00.654Z,84.28
2019-05-22T04:57:00.644Z,84.28
2019-05-22T04:58:00.632Z,84.18
2019-05-22T04:59:00.631Z,84.45
2019-05-22T05:00:00.610Z,84.25
2019-05-22T05:01:00.599Z,83.84
2019-05-22T05:02:00.594Z,84.25
2019-05-22T05:03:00.576Z,84.25
2019-05-22T05:04:00.565Z,83.94
2019-05-22T05:05:00.568Z,83.84
2019-05-22T05:06:00.545Z,83.94
2019-05-22T05:07:00.531Z,83.84
2019-05-22T05:08:00.521Z,83.53
2019-05-22T05:09:00.510Z,83.63
2019-05-22T05:10:00.499Z,83.84
2019-05-22T05:11:00.500Z,83.73
2019-05-22T05:12:00.478Z,83.73
2019-05-22T05:13:00.471Z,83.94
2019-05-22T05:14:00.458Z,83.12
2019-05-22T05:15:00.449Z,83.43
2019-05-22T05:16:00.435Z,83.43
2019-05-22T05:17:00.433Z,83.33
2019-05-22T05:18:00.412Z,83.33
2019-05-22T05:19:00.407Z,83.43
2019-05-22T05:20:00.393Z,83.53
2019-05-22T05:21:00.380Z,83.33
2019-05-22T05:22:00.371Z,83.12
2019-05-22T05:23:00.376Z,83.53
2019-05-22T05:24:00.346Z,83.43
2019-05-22T05:25:00.336Z,83.43
2019-05-22T05:26:00.325Z,83.43
2019-05-22T05:27:00.315Z,83.43
2019-05-22T05:28:00.303Z,83.63
2019-05-22T05:29:00.308Z,83.53
2019-05-22T05:30:00.283Z,83.63
2019-05-22T05:31:00.271Z,83.43
2019-05-22T05:32:00.261Z,83.43
2019-05-22T05:33:00.251Z,83.39
2019-05-22T05:34:00.241Z,82.88
2019-05-22T05:35:00.241Z,83.18
2019-05-22T05:36:00.218Z,82.37
2019-05-22T05:37:00.207Z,82.17
2019-05-22T05:38:00.201Z,82.37
2019-05-22T05:39:00.186Z,81.96
2019-05-22T05:40:00.178Z,82.03
2019-05-22T05:41:00.178Z,82.47
2019-05-22T05:42:00.155Z,81.96
2019-05-22T05:43:00.141Z,81.56
2019-05-22T05:44:00.131Z,82.47
2019-05-22T05:45:00.122Z,81.93
2019-05-22T05:46:00.110Z,81.93
2019-05-22T05:47:00.120Z,82.54
2019-05-22T05:48:00.088Z,82.23
2019-05-22T05:49:00.088Z,82.13
2019-05-22T05:50:00.067Z,82.13
2019-05-22T05:51:00.057Z,82.17
2019-05-22T05:52:00.045Z,82.07
2019-05-22T05:53:00.066Z,82.54
2019-05-22T05:54:00.025Z,82.13
2019-05-22T05:55:00.013Z,81.72
2019-05-22T05:56:00.005Z,81.93
2019-05-22T05:56:59.991Z,82.03
2019-05-22T05:57:59.982Z,82.54
2019-05-22T05:58:59.981Z,81.62
2019-05-22T05:59:59.960Z,82.03
2019-05-22T06:00:59.949Z,82.03
2019-05-22T06:01:59.937Z,82.03
2019-05-22T06:02:59.926Z,82.74
2019-05-22T06:03:59.915Z,82.47
2019-05-22T06:04:59.915Z,82.03
2019-05-22T06:05:59.893Z,82.54
2019-05-22T06:07:01.321Z,83.18
2019-05-22T06:07:59.873Z,83.49
2019-05-22T06:08:59.862Z,83.59
2019-05-22T06:09:59.852Z,83.09
2019-05-22T06:10:59.851Z,83.02
2019-05-22T06:11:59.828Z,83.23
2019-05-22T06:12:59.817Z,83.33
2019-05-22T06:13:59.809Z,83.87
2019-05-22T06:14:59.797Z,83.78
2019-05-22T06:15:59.786Z,84.04
2019-05-22T06:16:59.787Z,84.34
2019-05-22T06:17:59.763Z,84.14
2019-05-22T06:18:59.753Z,84.25
2019-05-22T06:19:59.743Z,83.94
2019-05-22T06:21:03.849Z,84.04
2019-05-22T06:21:59.720Z,84.14
2019-05-22T06:22:59.719Z,83.94
2019-05-22T06:23:59.698Z,84.14
2019-05-22T06:24:59.699Z,83.73
2019-05-22T06:25:59.677Z,83.53
2019-05-22T06:26:59.666Z,84.34
2019-05-22T06:27:59.655Z,84.04
2019-05-22T06:28:59.658Z,84.14
2019-05-22T06:29:59.634Z,84.14
2019-05-22T06:30:59.623Z,83.84
2019-05-22T06:31:59.613Z,84.14
2019-05-22T06:32:59.602Z,84.04
2019-05-22T06:33:59.592Z,84.25
2019-05-22T06:34:59.851Z,84.04
2019-05-22T06:35:59.570Z,84.04
2019-05-22T06:36:59.570Z,84.25
2019-05-22T06:37:59.548Z,84.04
2019-05-22T06:38:59.538Z,84.04
2019-05-22T06:39:59.585Z,84.20
2019-05-22T06:40:59.526Z,84.31
2019-05-22T06:41:59.511Z,84.20
2019-05-22T06:42:59.496Z,84.04
2019-05-22T06:43:59.483Z,83.73
2019-05-22T06:44:59.473Z,83.73
2019-05-22T06:45:59.461Z,84.25
2019-05-22T06:46:59.477Z,84.34
2019-05-22T06:47:59.451Z,84.45
2019-05-22T06:48:59.431Z,84.34
2019-05-22T06:49:59.474Z,84.45
2019-05-22T06:50:59.411Z,84.34
2019-05-22T06:51:59.400Z,84.25
2019-05-22T06:53:09.301Z,84.11
2019-05-22T06:54:00.374Z,84.00
2019-05-22T06:54:59.366Z,84.51
2019-05-22T06:55:59.356Z,84.00
2019-05-22T06:56:59.344Z,83.90
2019-05-22T06:57:59.333Z,83.84
2019-05-22T06:58:59.332Z,83.90
2019-05-22T07:00:13.526Z,84.00
2019-05-22T07:01:00.300Z,83.90
2019-05-22T07:02:01.329Z,83.59
2019-05-22T07:02:59.279Z,82.47
2019-05-22T07:03:59.268Z,82.17
2019-05-22T07:04:59.269Z,82.43
2019-05-22T07:05:59.265Z,81.62
2019-05-22T07:06:59.277Z,81.62
2019-05-22T07:07:59.224Z,81.11
2019-05-22T07:08:59.219Z,80.09
2019-05-22T07:09:59.201Z,80.29
2019-05-22T07:10:59.247Z,79.79
2019-05-22T07:11:59.179Z,79.99
2019-05-22T07:12:59.167Z,79.99
2019-05-22T07:13:59.158Z,79.99
2019-05-22T07:14:59.147Z,79.99
2019-05-22T07:15:59.135Z,79.68
2019-05-22T07:16:59.141Z,78.56
2019-05-22T07:17:59.115Z,78.46
2019-05-22T07:18:59.101Z,78.46
2019-05-22T07:19:59.090Z,78.46
2019-05-22T07:20:59.079Z,78.77
2019-05-22T07:21:59.069Z,78.66
2019-05-22T07:22:59.232Z,78.87
2019-05-22T07:23:59.045Z,78.66
2019-05-22T07:24:59.035Z,79.03
2019-05-22T07:25:59.025Z,79.03
2019-05-22T07:26:59.013Z,78.42
2019-05-22T07:27:59.004Z,78.12
2019-05-22T07:29:02.735Z,78.56
2019-05-22T07:29:59.981Z,78.66
2019-05-22T07:30:58.970Z,78.66
2019-05-22T07:32:02.072Z,78.56
2019-05-22T07:32:58.948Z,78.77
2019-05-22T07:33:58.936Z,78.36
2019-05-22T07:34:58.990Z,77.95
2019-05-22T07:36:09.845Z,77.75
2019-05-22T07:36:59.902Z,78.16
2019-05-22T07:37:58.891Z,77.64
2019-05-22T07:38:58.881Z,78.05
2019-05-22T07:39:58.877Z,77.85
2019-05-22T07:40:58.878Z,77.55
2019-05-22T07:41:58.848Z,77.64
2019-05-22T07:42:58.837Z,77.85
2019-05-22T07:43:58.843Z,77.85
2019-05-22T07:44:58.829Z,77.95
2019-05-22T07:45:58.831Z,78.05
2019-05-22T07:46:58.804Z,77.71
2019-05-22T07:47:58.795Z,77.75
2019-05-22T07:48:58.770Z,77.34
2019-05-22T07:49:58.760Z,77.40
2019-05-22T07:50:58.808Z,77.40
2019-05-22T07:52:01.770Z,77.00
2019-05-22T07:52:58.742Z,76.90
2019-05-22T07:53:58.724Z,76.08
2019-05-22T07:54:58.704Z,75.33
2019-05-22T07:55:58.693Z,75.57
2019-05-22T07:56:58.681Z,74.52
2019-05-22T07:57:58.672Z,73.19
2019-05-22T07:58:59.112Z,73.33
2019-05-22T07:59:58.656Z,73.43
2019-05-22T08:00:58.756Z,72.78
2019-05-22T08:01:58.626Z,72.38
2019-05-22T08:02:58.615Z,72.69
2019-05-22T08:03:58.604Z,72.99
2019-05-22T08:04:58.610Z,73.10
2019-05-22T08:05:58.598Z,73.10
2019-05-22T08:06:58.580Z,72.89
2019-05-22T08:07:58.561Z,72.69
2019-05-22T08:08:58.553Z,73.40
2019-05-22T08:09:58.540Z,73.16
2019-05-22T08:10:58.540Z,73.19
2019-05-22T08:11:58.519Z,73.50
2019-05-22T08:12:58.509Z,73.26
2019-05-22T08:13:58.502Z,72.96
2019-05-22T08:14:58.487Z,73.06
2019-05-22T08:15:58.504Z,73.06
2019-05-22T08:16:58.481Z,72.99
2019-05-22T08:17:58.458Z,72.89
2019-05-22T08:18:58.445Z,73.19
2019-05-22T08:19:58.433Z,73.16
2019-05-22T08:20:58.574Z,73.16
2019-05-22T08:22:06.692Z,73.40
2019-05-22T08:22:59.415Z,73.26
2019-05-22T08:23:58.393Z,72.96
2019-05-22T08:24:58.386Z,74.08
2019-05-22T08:25:58.574Z,73.87
2019-05-22T08:26:58.415Z,73.06
2019-05-22T08:27:58.347Z,72.86
2019-05-22T08:28:58.348Z,73.16
2019-05-22T08:29:58.326Z,73.06
2019-05-22T08:30:58.321Z,73.16
2019-05-22T08:31:58.305Z,72.78
2019-05-22T08:32:58.296Z,72.48
2019-05-22T08:33:58.283Z,72.78
2019-05-22T08:34:58.284Z,73.60
2019-05-22T08:35:58.274Z,72.99
2019-05-22T08:36:58.251Z,73.10
2019-05-22T08:37:58.243Z,73.10
2019-05-22T08:38:58.230Z,72.69
2019-05-22T08:39:58.219Z,72.58
2019-05-22T08:40:58.228Z,71.56
2019-05-22T08:41:58.230Z,71.67
2019-05-22T08:42:58.487Z,71.67
2019-05-22T08:44:15.489Z,71.53
2019-05-22T08:44:59.164Z,71.73
2019-05-22T08:45:58.156Z,71.02
2019-05-22T08:46:58.166Z,71.64
2019-05-22T08:47:58.224Z,71.43
2019-05-22T08:48:58.123Z,71.43
2019-05-22T08:49:58.112Z,71.94
2019-05-22T08:50:58.139Z,71.53
2019-05-22T08:51:58.088Z,70.92
2019-05-22T08:52:58.091Z,71.23
2019-05-22T08:53:58.067Z,71.30
2019-05-22T08:54:58.059Z,71.09
2019-05-22T08:55:58.046Z,70.99
2019-05-22T08:56:58.034Z,70.31
2019-05-22T08:57:58.025Z,70.41
2019-05-22T08:58:58.029Z,70.92
2019-05-22T08:59:58.001Z,70.72
2019-05-22T09:00:57.990Z,70.51
2019-05-22T09:01:57.993Z,70.68
2019-05-22T09:02:57.976Z,70.38
2019-05-22T09:03:57.956Z,70.82
2019-05-22T09:04:57.957Z,70.89
2019-05-22T09:05:57.938Z,70.82
2019-05-22T09:06:57.950Z,70.41
2019-05-22T09:07:57.919Z,70.48
2019-05-22T09:08:57.907Z,70.28
2019-05-22T09:09:57.891Z,69.87
2019-05-22T09:10:57.892Z,70.07
2019-05-22T09:11:57.870Z,69.77
2019-05-22T09:12:57.865Z,69.77
2019-05-22T09:13:57.850Z,69.87
2019-05-22T09:14:57.869Z,69.77
2019-05-22T09:16:01.673Z,69.64
2019-05-22T09:16:57.830Z,69.33
2019-05-22T09:17:57.803Z,69.53
2019-05-22T09:18:57.792Z,69.13
2019-05-22T09:19:57.782Z,68.55
2019-05-22T09:20:57.770Z,69.16
2019-05-22T09:21:57.758Z,69.26
2019-05-22T09:22:57.760Z,68.44
2019-05-22T09:23:57.737Z,69.46
2019-05-22T09:24:57.726Z,68.85
2019-05-22T09:25:57.714Z,68.82
2019-05-22T09:26:57.706Z,68.52
2019-05-22T09:27:57.692Z,68.41
2019-05-22T09:28:57.693Z,69.46
2019-05-22T09:29:57.671Z,69.33
2019-05-22T09:30:57.687Z,69.43
2019-05-22T09:31:57.651Z,69.53
2019-05-22T09:32:57.638Z,68.82
2019-05-22T09:33:57.628Z,68.89
2019-05-22T09:34:57.625Z,68.92
2019-05-22T09:35:57.606Z,68.69
2019-05-22T09:36:57.595Z,68.28
2019-05-22T09:37:57.584Z,68.59
2019-05-22T09:38:57.580Z,68.49
2019-05-22T09:39:57.562Z,68.79
2019-05-22T09:40:57.562Z,69.20
2019-05-22T09:41:57.540Z,68.59
2019-05-22T09:42:57.529Z,68.79
2019-05-22T09:43:57.519Z,68.99
2019-05-22T09:44:57.508Z,68.69
2019-05-22T09:45:57.500Z,68.79
2019-05-22T09:46:57.496Z,67.74
2019-05-22T09:47:57.477Z,68.45
2019-05-22T09:48:57.467Z,67.94
2019-05-22T09:49:57.478Z,67.64
2019-05-22T09:50:57.445Z,68.22
2019-05-22T09:51:57.434Z,68.52
2019-05-22T09:52:58.405Z,68.83
2019-05-22T09:53:57.412Z,68.42
2019-05-22T09:54:57.401Z,67.98
2019-05-22T09:55:57.409Z,68.79
2019-05-22T09:56:57.394Z,68.79
2019-05-22T09:57:57.370Z,67.75
2019-05-22T09:58:57.377Z,66.94
2019-05-22T09:59:57.365Z,66.83
2019-05-22T10:00:57.336Z,67.03
2019-05-22T10:01:57.325Z,65.52
2019-05-22T10:02:57.321Z,65.48
2019-05-22T10:03:57.313Z,65.48
2019-05-22T10:04:57.319Z,64.88
2019-05-22T10:05:57.433Z,64.67
2019-05-22T10:06:57.271Z,64.85
2019-05-22T10:08:01.020Z,64.95
2019-05-22T10:08:57.247Z,63.50
2019-05-22T10:09:57.241Z,64.24
2019-05-22T10:10:57.236Z,64.44
2019-05-22T10:11:57.217Z,64.44
2019-05-22T10:12:57.209Z,63.83
2019-05-22T10:13:57.199Z,64.95
2019-05-22T10:14:57.243Z,64.64
2019-05-22T10:15:57.173Z,64.85
2019-05-22T10:16:57.171Z,64.85
2019-05-22T10:17:57.158Z,64.64
2019-05-22T10:18:57.143Z,65.25
2019-05-22T10:19:57.130Z,64.54
2019-05-22T10:20:57.121Z,64.61
2019-05-22T10:21:57.111Z,65.12
2019-05-22T10:23:12.483Z,64.48
2019-05-22T10:23:58.085Z,63.90
2019-05-22T10:25:13.979Z,63.78
2019-05-22T10:25:58.064Z,63.47
2019-05-22T10:26:57.061Z,63.78
2019-05-22T10:27:59.363Z,62.86
2019-05-22T10:28:57.042Z,63.13
2019-05-22T10:29:57.024Z,62.93
2019-05-22T10:30:57.889Z,63.95
2019-05-22T10:31:56.999Z,61.32
2019-05-22T10:32:56.997Z,62.53
2019-05-22T10:33:56.978Z,61.21
2019-05-22T10:34:57.824Z,61.82
2019-05-22T10:35:56.966Z,60.71
2019-05-22T10:36:56.946Z,60.10
2019-05-22T10:37:56.935Z,60.91
2019-05-22T10:38:56.923Z,60.68
2019-05-22T10:39:56.913Z,59.84
2019-05-22T10:40:59.385Z,59.14
2019-05-22T10:41:56.893Z,57.69
2019-05-22T10:42:56.902Z,58.00
2019-05-22T10:43:56.870Z,57.69
2019-05-22T10:44:56.866Z,57.36
2019-05-22T10:45:56.845Z,56.56
2019-05-22T10:46:56.858Z,56.56
2019-05-22T10:47:56.829Z,55.94
2019-05-22T10:48:56.818Z,56.73
2019-05-22T10:49:56.812Z,57.74
2019-05-22T10:50:56.791Z,57.36
2019-05-22T10:51:56.784Z,57.26
2019-05-22T10:52:56.778Z,57.76
2019-05-22T10:53:56.762Z,55.94
2019-05-22T10:54:56.749Z,56.38
2019-05-22T10:55:56.737Z,58.23
2019-05-22T10:56:56.728Z,57.31
2019-05-22T10:57:56.727Z,57.62
2019-05-22T10:58:56.725Z,57.31
2019-05-22T10:59:56.697Z,57.31
2019-05-22T11:00:56.688Z,56.20
2019-05-22T11:01:56.677Z,58.12
2019-05-22T11:02:56.671Z,57.49
2019-05-22T11:03:56.651Z,57.67
2019-05-22T11:04:56.660Z,56.35
2019-05-22T11:06:07.044Z,56.23
2019-05-22T11:06:57.617Z,56.50
2019-05-22T11:07:56.611Z,56.02
2019-05-22T11:08:56.597Z,55.62
2019-05-22T11:09:56.587Z,55.72
2019-05-22T11:10:56.586Z,55.32
2019-05-22T11:11:56.568Z,55.62
2019-05-22T11:12:56.554Z,55.11
2019-05-22T11:14:01.404Z,56.23
2019-05-22T11:14:57.532Z,56.38
2019-05-22T11:15:56.534Z,57.21
2019-05-22T11:16:56.541Z,57.31
2019-05-22T11:17:56.502Z,58.36
2019-05-22T11:18:56.493Z,58.05
2019-05-22T11:19:56.489Z,57.92
2019-05-22T11:20:56.469Z,57.79
2019-05-22T11:21:57.222Z,56.48
2019-05-22T11:22:56.458Z,56.25
2019-05-22T11:23:56.435Z,56.56
2019-05-22T11:24:56.426Z,56.43
2019-05-22T11:25:56.413Z,56.30
2019-05-22T11:26:56.400Z,56.30
2019-05-22T11:27:56.391Z,55.26
2019-05-22T11:28:56.432Z,53.92
2019-05-22T11:29:56.369Z,54.56
2019-05-22T11:30:56.356Z,53.63
2019-05-22T11:31:56.348Z,52.82
2019-05-22T11:32:56.336Z,52.54
2019-05-22T11:33:56.335Z,53.52
2019-05-22T11:34:56.326Z,53.52
2019-05-22T11:35:56.303Z,53.42
2019-05-22T11:36:56.301Z,53.63
2019-05-22T11:37:56.282Z,53.92
2019-05-22T11:38:56.287Z,53.55
2019-05-22T11:39:56.268Z,53.75
2019-05-22T11:40:56.260Z,54.25
2019-05-22T11:41:56.239Z,53.25
2019-05-22T11:42:56.291Z,53.42
2019-05-22T11:43:56.220Z,53.02
2019-05-22T11:44:56.207Z,52.51
2019-05-22T11:45:56.197Z,53.52
2019-05-22T11:46:56.194Z,52.29
2019-05-22T11:47:56.175Z,54.00
2019-05-22T11:48:56.162Z,53.09
2019-05-22T11:49:56.156Z,52.80
2019-05-22T11:50:56.147Z,52.67
2019-05-22T11:51:56.142Z,52.47
2019-05-22T11:52:56.144Z,52.26
2019-05-22T11:54:08.671Z,51.86
2019-05-22T11:54:57.102Z,51.86
2019-05-22T11:55:56.089Z,51.43
2019-05-22T11:56:56.077Z,51.23
2019-05-22T11:57:56.066Z,51.54
2019-05-22T11:58:56.085Z,50.83
2019-05-22T11:59:56.044Z,50.33
2019-05-22T12:00:56.035Z,51.34
2019-05-22T12:01:56.024Z,50.73
2019-05-22T12:02:56.019Z,50.53
2019-05-22T12:03:56.005Z,50.20
2019-05-22T12:04:56.004Z,49.90
2019-05-22T12:05:55.979Z,49.80
2019-05-22T12:06:55.969Z,50.85
2019-05-22T12:07:55.959Z,50.98
2019-05-22T12:08:55.949Z,52.19
2019-05-22T12:09:55.936Z,51.79
2019-05-22T12:10:55.939Z,51.76
2019-05-22T12:11:55.915Z,51.03
2019-05-22T12:12:55.905Z,51.43
2019-05-22T12:13:55.893Z,49.90
2019-05-22T12:14:55.883Z,49.70
2019-05-22T12:15:55.871Z,49.32
2019-05-22T12:16:55.872Z,50.00
2019-05-22T12:17:55.851Z,50.23
2019-05-22T12:18:58.708Z,50.53
2019-05-22T12:19:55.828Z,50.33
2019-05-22T12:20:55.819Z,50.33
2019-05-22T12:21:55.807Z,50.02
2019-05-22T12:22:55.819Z,50.33
2019-05-22T12:23:55.795Z,49.62
2019-05-22T12:24:55.775Z,50.02
2019-05-22T12:25:55.765Z,50.05
2019-05-22T12:26:55.758Z,49.82
2019-05-22T12:27:55.743Z,50.56
2019-05-22T12:28:55.742Z,50.33
2019-05-22T12:29:55.721Z,50.53
2019-05-22T12:30:55.711Z,49.93
2019-05-22T12:31:55.699Z,49.04
2019-05-22T12:32:55.693Z,51.16
2019-05-22T12:33:55.678Z,50.56
2019-05-22T12:34:55.688Z,50.45
2019-05-22T12:35:55.659Z,49.35
2019-05-22T12:36:55.648Z,49.32
2019-05-22T12:37:55.636Z,49.32
2019-05-22T12:38:55.628Z,49.82
2019-05-22T12:39:55.630Z,49.02
2019-05-22T12:40:55.616Z,49.55
2019-05-22T12:41:55.597Z,49.35
2019-05-22T12:42:55.587Z,48.94
2019-05-22T12:43:55.573Z,48.82
2019-05-22T12:44:55.562Z,49.82
2019-05-22T12:45:55.551Z,49.50
2019-05-22T12:46:55.557Z,49.10
2019-05-22T12:47:55.530Z,48.79
2019-05-22T12:48:55.521Z,49.90
2019-05-22T12:49:55.510Z,50.00
2019-05-22T12:50:55.503Z,49.98
2019-05-22T12:51:55.493Z,49.98